sensor_id;sensor_type;location;lat;lon;timestamp;P1;durP1;ratioP1;P2;durP2;ratioP2
76380;SDS011;65202;52.520;10.528;2023-04-01T00:01:13;7.55;;;1.90;;
76380;SDS011;65202;52.520;10.528;2023-04-01T00:03:43;8.93;;;2.53;;
76380;SDS011;65202;52.520;10.528;2023-04-01T00:06:12;8.75;;;2.00;;
76380;SDS011;65202;52.520;10.528;2023-04-01T00:08:42;7.90;;;2.08;;
76380;SDS011;65202;52.520;10.528;2023-04-01T00:11:11;9.32;;;2.35;;
76380;SDS011;65202;52.520;10.528;2023-04-01T00:13:39;12.25;;;2.60;;
76380;SDS011;65202;52.520;10.528;2023-04-01T00:16:07;7.93;;;2.50;;
76380;SDS011;65202;52.520;10.528;2023-04-01T00:18:46;7.55;;;2.35;;
76380;SDS011;65202;52.520;10.528;2023-04-01T00:21:15;9.90;;;2.53;;
76380;SDS011;65202;52.520;10.528;2023-04-01T00:23:43;11.30;;;2.45;;
76380;SDS011;65202;52.520;10.528;2023-04-01T00:26:10;7.55;;;2.33;;
76380;SDS011;65202;52.520;10.528;2023-04-01T00:28:39;7.68;;;2.15;;
76380;SDS011;65202;52.520;10.528;2023-04-01T00:31:09;6.43;;;2.05;;
76380;SDS011;65202;52.520;10.528;2023-04-01T00:33:38;12.40;;;2.67;;
76380;SDS011;65202;52.520;10.528;2023-04-01T00:36:18;11.93;;;2.42;;
76380;SDS011;65202;52.520;10.528;2023-04-01T00:38:49;11.25;;;2.30;;
76380;SDS011;65202;52.520;10.528;2023-04-01T00:41:19;10.65;;;2.80;;
76380;SDS011;65202;52.520;10.528;2023-04-01T00:43:49;13.55;;;2.40;;
76380;SDS011;65202;52.520;10.528;2023-04-01T00:46:18;7.85;;;2.03;;
76380;SDS011;65202;52.520;10.528;2023-04-01T00:48:48;12.15;;;2.22;;
76380;SDS011;65202;52.520;10.528;2023-04-01T00:51:22;7.65;;;2.00;;
76380;SDS011;65202;52.520;10.528;2023-04-01T00:53:56;10.70;;;2.28;;
76380;SDS011;65202;52.520;10.528;2023-04-01T00:56:38;13.82;;;2.47;;
76380;SDS011;65202;52.520;10.528;2023-04-01T00:59:16;7.47;;;2.10;;
76380;SDS011;65202;52.520;10.528;2023-04-01T01:01:50;10.23;;;2.20;;
76380;SDS011;65202;52.520;10.528;2023-04-01T01:04:25;12.10;;;2.40;;
76380;SDS011;65202;52.520;10.528;2023-04-01T01:12:54;12.50;;;2.70;;
76380;SDS011;65202;52.520;10.528;2023-04-01T01:15:51;8.95;;;3.15;;
76380;SDS011;65202;52.520;10.528;2023-04-01T01:18:35;12.98;;;2.92;;
76380;SDS011;65202;52.520;10.528;2023-04-01T01:26:44;17.63;;;3.85;;
76380;SDS011;65202;52.520;10.528;2023-04-01T01:32:43;12.45;;;3.63;;
76380;SDS011;65202;52.520;10.528;2023-04-01T01:35:31;15.50;;;4.00;;
76380;SDS011;65202;52.520;10.528;2023-04-01T01:38:09;12.18;;;4.20;;
76380;SDS011;65202;52.520;10.528;2023-04-01T01:40:43;12.48;;;3.85;;
76380;SDS011;65202;52.520;10.528;2023-04-01T01:43:19;18.35;;;4.13;;
76380;SDS011;65202;52.520;10.528;2023-04-01T01:45:53;15.63;;;4.00;;
76380;SDS011;65202;52.520;10.528;2023-04-01T01:48:26;15.48;;;3.90;;
76380;SDS011;65202;52.520;10.528;2023-04-01T01:50:57;10.30;;;3.75;;
76380;SDS011;65202;52.520;10.528;2023-04-01T01:53:26;12.02;;;3.72;;
76380;SDS011;65202;52.520;10.528;2023-04-01T01:55:54;14.55;;;3.67;;
76380;SDS011;65202;52.520;10.528;2023-04-01T01:58:23;9.43;;;3.60;;
76380;SDS011;65202;52.520;10.528;2023-04-01T02:00:58;11.15;;;3.40;;
76380;SDS011;65202;52.520;10.528;2023-04-01T02:03:33;10.95;;;3.83;;
76380;SDS011;65202;52.520;10.528;2023-04-01T02:06:07;11.95;;;3.60;;
76380;SDS011;65202;52.520;10.528;2023-04-01T02:08:44;11.95;;;3.17;;
76380;SDS011;65202;52.520;10.528;2023-04-01T02:11:19;10.38;;;3.00;;
76380;SDS011;65202;52.520;10.528;2023-04-01T02:14:11;11.07;;;3.05;;
76380;SDS011;65202;52.520;10.528;2023-04-01T02:17:03;16.77;;;3.30;;
76380;SDS011;65202;52.520;10.528;2023-04-01T02:19:38;15.77;;;3.47;;
76380;SDS011;65202;52.520;10.528;2023-04-01T02:22:22;10.60;;;3.00;;
76380;SDS011;65202;52.520;10.528;2023-04-01T02:24:59;9.90;;;3.03;;
76380;SDS011;65202;52.520;10.528;2023-04-01T02:27:38;7.70;;;2.92;;
76380;SDS011;65202;52.520;10.528;2023-04-01T02:30:10;9.80;;;2.90;;
76380;SDS011;65202;52.520;10.528;2023-04-01T02:32:41;7.45;;;2.50;;
76380;SDS011;65202;52.520;10.528;2023-04-01T02:35:14;9.98;;;2.40;;
76380;SDS011;65202;52.520;10.528;2023-04-01T02:37:45;12.75;;;2.90;;
76380;SDS011;65202;52.520;10.528;2023-04-01T02:40:19;13.57;;;3.00;;
76380;SDS011;65202;52.520;10.528;2023-04-01T02:42:47;9.63;;;2.22;;
76380;SDS011;65202;52.520;10.528;2023-04-01T02:45:16;8.32;;;2.22;;
76380;SDS011;65202;52.520;10.528;2023-04-01T02:47:44;7.55;;;2.30;;
76380;SDS011;65202;52.520;10.528;2023-04-01T02:50:11;18.02;;;8.38;;
76380;SDS011;65202;52.520;10.528;2023-04-01T02:52:38;18.65;;;7.70;;
76380;SDS011;65202;52.520;10.528;2023-04-01T02:55:06;11.57;;;2.67;;
76380;SDS011;65202;52.520;10.528;2023-04-01T02:57:34;9.80;;;2.00;;
76380;SDS011;65202;52.520;10.528;2023-04-01T03:00:02;7.03;;;2.42;;
76380;SDS011;65202;52.520;10.528;2023-04-01T03:02:30;5.50;;;2.08;;
76380;SDS011;65202;52.520;10.528;2023-04-01T03:04:58;8.95;;;2.17;;
76380;SDS011;65202;52.520;10.528;2023-04-01T03:07:26;8.77;;;2.03;;
76380;SDS011;65202;52.520;10.528;2023-04-01T03:09:53;10.55;;;2.00;;
76380;SDS011;65202;52.520;10.528;2023-04-01T03:12:21;9.07;;;2.05;;
76380;SDS011;65202;52.520;10.528;2023-04-01T03:14:48;7.95;;;2.22;;
76380;SDS011;65202;52.520;10.528;2023-04-01T03:17:17;6.78;;;2.20;;
76380;SDS011;65202;52.520;10.528;2023-04-01T03:19:45;8.05;;;2.00;;
76380;SDS011;65202;52.520;10.528;2023-04-01T03:22:13;13.38;;;2.28;;
76380;SDS011;65202;52.520;10.528;2023-04-01T03:24:41;11.88;;;2.83;;
76380;SDS011;65202;52.520;10.528;2023-04-01T03:27:09;9.80;;;2.35;;
76380;SDS011;65202;52.520;10.528;2023-04-01T03:29:37;6.78;;;2.17;;
76380;SDS011;65202;52.520;10.528;2023-04-01T03:32:05;7.60;;;2.20;;
76380;SDS011;65202;52.520;10.528;2023-04-01T03:34:33;9.23;;;2.55;;
76380;SDS011;65202;52.520;10.528;2023-04-01T03:37:00;8.93;;;2.30;;
76380;SDS011;65202;52.520;10.528;2023-04-01T03:39:28;9.40;;;2.22;;
76380;SDS011;65202;52.520;10.528;2023-04-01T03:41:55;8.95;;;2.30;;
76380;SDS011;65202;52.520;10.528;2023-04-01T03:44:22;12.32;;;1.90;;
76380;SDS011;65202;52.520;10.528;2023-04-01T03:46:50;8.55;;;2.35;;
76380;SDS011;65202;52.520;10.528;2023-04-01T03:49:17;10.38;;;2.22;;
76380;SDS011;65202;52.520;10.528;2023-04-01T03:51:45;6.97;;;2.22;;
76380;SDS011;65202;52.520;10.528;2023-04-01T03:54:14;8.43;;;2.30;;
76380;SDS011;65202;52.520;10.528;2023-04-01T03:56:42;11.07;;;2.22;;
76380;SDS011;65202;52.520;10.528;2023-04-01T03:59:09;13.43;;;4.97;;
76380;SDS011;65202;52.520;10.528;2023-04-01T04:01:37;7.65;;;2.70;;
76380;SDS011;65202;52.520;10.528;2023-04-01T04:04:05;12.23;;;2.63;;
76380;SDS011;65202;52.520;10.528;2023-04-01T04:06:33;8.05;;;2.97;;
76380;SDS011;65202;52.520;10.528;2023-04-01T04:09:01;8.23;;;2.72;;
76380;SDS011;65202;52.520;10.528;2023-04-01T04:11:29;8.48;;;3.20;;
76380;SDS011;65202;52.520;10.528;2023-04-01T04:13:58;9.40;;;2.88;;
76380;SDS011;65202;52.520;10.528;2023-04-01T04:16:26;9.95;;;3.20;;
76380;SDS011;65202;52.520;10.528;2023-04-01T04:18:54;9.55;;;3.47;;
76380;SDS011;65202;52.520;10.528;2023-04-01T04:21:21;8.18;;;2.90;;
76380;SDS011;65202;52.520;10.528;2023-04-01T04:23:48;10.98;;;2.97;;
76380;SDS011;65202;52.520;10.528;2023-04-01T04:26:18;11.05;;;3.03;;
76380;SDS011;65202;52.520;10.528;2023-04-01T04:28:47;12.02;;;3.03;;
76380;SDS011;65202;52.520;10.528;2023-04-01T04:31:21;14.95;;;3.25;;
76380;SDS011;65202;52.520;10.528;2023-04-01T04:33:52;6.95;;;2.65;;
76380;SDS011;65202;52.520;10.528;2023-04-01T04:36:20;9.15;;;3.03;;
76380;SDS011;65202;52.520;10.528;2023-04-01T04:38:48;12.70;;;2.90;;
76380;SDS011;65202;52.520;10.528;2023-04-01T04:41:16;12.00;;;3.42;;
76380;SDS011;65202;52.520;10.528;2023-04-01T04:43:49;7.15;;;3.15;;
76380;SDS011;65202;52.520;10.528;2023-04-01T04:46:21;9.93;;;3.00;;
76380;SDS011;65202;52.520;10.528;2023-04-01T04:48:49;8.90;;;2.80;;
76380;SDS011;65202;52.520;10.528;2023-04-01T04:51:17;12.82;;;3.58;;
76380;SDS011;65202;52.520;10.528;2023-04-01T04:53:47;11.60;;;4.57;;
76380;SDS011;65202;52.520;10.528;2023-04-01T04:56:18;14.57;;;5.30;;
76380;SDS011;65202;52.520;10.528;2023-04-01T04:58:47;7.25;;;2.97;;
76380;SDS011;65202;52.520;10.528;2023-04-01T05:01:15;8.38;;;3.10;;
76380;SDS011;65202;52.520;10.528;2023-04-01T05:03:43;9.48;;;3.00;;
76380;SDS011;65202;52.520;10.528;2023-04-01T05:06:13;15.05;;;3.20;;
76380;SDS011;65202;52.520;10.528;2023-04-01T05:08:42;8.85;;;2.75;;
76380;SDS011;65202;52.520;10.528;2023-04-01T05:11:12;6.63;;;3.03;;
76380;SDS011;65202;52.520;10.528;2023-04-01T05:13:43;11.65;;;3.22;;
76380;SDS011;65202;52.520;10.528;2023-04-01T05:16:12;8.52;;;3.20;;
76380;SDS011;65202;52.520;10.528;2023-04-01T05:18:43;11.05;;;3.60;;
76380;SDS011;65202;52.520;10.528;2023-04-01T05:21:11;11.52;;;3.60;;
76380;SDS011;65202;52.520;10.528;2023-04-01T05:23:41;8.63;;;2.97;;
76380;SDS011;65202;52.520;10.528;2023-04-01T05:26:10;8.40;;;2.80;;
76380;SDS011;65202;52.520;10.528;2023-04-01T05:28:40;10.45;;;3.00;;
76380;SDS011;65202;52.520;10.528;2023-04-01T05:31:08;7.45;;;2.90;;
76380;SDS011;65202;52.520;10.528;2023-04-01T05:33:36;10.88;;;3.13;;
76380;SDS011;65202;52.520;10.528;2023-04-01T05:36:10;8.30;;;2.92;;
76380;SDS011;65202;52.520;10.528;2023-04-01T05:38:41;8.07;;;3.10;;
76380;SDS011;65202;52.520;10.528;2023-04-01T05:41:09;7.50;;;2.50;;
76380;SDS011;65202;52.520;10.528;2023-04-01T05:43:36;12.30;;;2.88;;
76380;SDS011;65202;52.520;10.528;2023-04-01T05:46:05;9.77;;;2.75;;
76380;SDS011;65202;52.520;10.528;2023-04-01T05:48:33;7.43;;;3.13;;
76380;SDS011;65202;52.520;10.528;2023-04-01T05:51:02;7.95;;;3.05;;
76380;SDS011;65202;52.520;10.528;2023-04-01T05:53:31;10.13;;;3.40;;
76380;SDS011;65202;52.520;10.528;2023-04-01T05:56:01;10.98;;;2.97;;
76380;SDS011;65202;52.520;10.528;2023-04-01T05:58:30;8.20;;;3.13;;
76380;SDS011;65202;52.520;10.528;2023-04-01T06:01:04;12.07;;;2.85;;
76380;SDS011;65202;52.520;10.528;2023-04-01T06:03:41;7.47;;;2.72;;
76380;SDS011;65202;52.520;10.528;2023-04-01T06:06:16;5.57;;;3.00;;
76380;SDS011;65202;52.520;10.528;2023-04-01T06:08:52;6.57;;;2.60;;
76380;SDS011;65202;52.520;10.528;2023-04-01T06:14:32;7.28;;;2.60;;
76380;SDS011;65202;52.520;10.528;2023-04-01T06:17:30;7.50;;;2.60;;
76380;SDS011;65202;52.520;10.528;2023-04-01T06:21:08;8.50;;;2.65;;
76380;SDS011;65202;52.520;10.528;2023-04-01T06:26:52;7.82;;;2.60;;
76380;SDS011;65202;52.520;10.528;2023-04-01T06:32:25;7.82;;;3.30;;
76380;SDS011;65202;52.520;10.528;2023-04-01T06:35:32;11.88;;;3.95;;
76380;SDS011;65202;52.520;10.528;2023-04-01T06:47:17;10.63;;;3.20;;
76380;SDS011;65202;52.520;10.528;2023-04-01T06:49:57;11.77;;;3.97;;
76380;SDS011;65202;52.520;10.528;2023-04-01T06:55:52;7.15;;;2.40;;
76380;SDS011;65202;52.520;10.528;2023-04-01T06:58:37;5.57;;;2.75;;
76380;SDS011;65202;52.520;10.528;2023-04-01T07:01:35;8.02;;;2.50;;
76380;SDS011;65202;52.520;10.528;2023-04-01T07:04:10;7.55;;;2.33;;
76380;SDS011;65202;52.520;10.528;2023-04-01T07:06:46;8.05;;;2.58;;
76380;SDS011;65202;52.520;10.528;2023-04-01T07:09:20;9.35;;;2.60;;
76380;SDS011;65202;52.520;10.528;2023-04-01T07:11:56;7.38;;;2.40;;
76380;SDS011;65202;52.520;10.528;2023-04-01T07:14:30;9.25;;;3.40;;
76380;SDS011;65202;52.520;10.528;2023-04-01T07:17:04;6.00;;;2.42;;
76380;SDS011;65202;52.520;10.528;2023-04-01T07:19:53;5.45;;;2.25;;
76380;SDS011;65202;52.520;10.528;2023-04-01T07:22:41;7.15;;;2.50;;
76380;SDS011;65202;52.520;10.528;2023-04-01T07:28:03;6.60;;;2.40;;
76380;SDS011;65202;52.520;10.528;2023-04-01T07:31:25;6.28;;;2.20;;
76380;SDS011;65202;52.520;10.528;2023-04-01T07:36:45;7.32;;;2.60;;
76380;SDS011;65202;52.520;10.528;2023-04-01T07:42:46;7.40;;;2.53;;
76380;SDS011;65202;52.520;10.528;2023-04-01T07:45:36;21.90;;;11.63;;
76380;SDS011;65202;52.520;10.528;2023-04-01T07:48:37;5.50;;;2.40;;
76380;SDS011;65202;52.520;10.528;2023-04-01T07:54:24;5.25;;;2.28;;
76380;SDS011;65202;52.520;10.528;2023-04-01T08:05:53;4.13;;;1.88;;
76380;SDS011;65202;52.520;10.528;2023-04-01T08:08:32;5.57;;;2.03;;
76380;SDS011;65202;52.520;10.528;2023-04-01T08:11:55;5.30;;;1.80;;
76380;SDS011;65202;52.520;10.528;2023-04-01T08:23:22;4.57;;;2.30;;
76380;SDS011;65202;52.520;10.528;2023-04-01T08:25:56;4.78;;;2.17;;
76380;SDS011;65202;52.520;10.528;2023-04-01T08:28:33;5.95;;;2.38;;
76380;SDS011;65202;52.520;10.528;2023-04-01T08:34:10;6.95;;;2.65;;
76380;SDS011;65202;52.520;10.528;2023-04-01T08:36:47;9.43;;;2.50;;
76380;SDS011;65202;52.520;10.528;2023-04-01T08:42:16;5.38;;;1.98;;
76380;SDS011;65202;52.520;10.528;2023-04-01T09:01:41;3.22;;;1.33;;
76380;SDS011;65202;52.520;10.528;2023-04-01T09:04:41;7.15;;;1.40;;
76380;SDS011;65202;52.520;10.528;2023-04-01T09:10:49;1.75;;;1.15;;
76380;SDS011;65202;52.520;10.528;2023-04-01T09:13:51;5.78;;;1.73;;
76380;SDS011;65202;52.520;10.528;2023-04-01T09:16:48;2.03;;;1.00;;
76380;SDS011;65202;52.520;10.528;2023-04-01T09:19:47;2.60;;;1.17;;
76380;SDS011;65202;52.520;10.528;2023-04-01T09:25:54;4.35;;;1.23;;
76380;SDS011;65202;52.520;10.528;2023-04-01T09:32:30;3.13;;;1.00;;
76380;SDS011;65202;52.520;10.528;2023-04-01T09:35:04;1.48;;;0.60;;
76380;SDS011;65202;52.520;10.528;2023-04-01T09:38:03;2.92;;;0.63;;
76380;SDS011;65202;52.520;10.528;2023-04-01T09:49:55;7.03;;;4.72;;
76380;SDS011;65202;52.520;10.528;2023-04-01T09:52:50;4.90;;;3.90;;
76380;SDS011;65202;52.520;10.528;2023-04-01T09:58:56;1.83;;;0.77;;
76380;SDS011;65202;52.520;10.528;2023-04-01T10:07:42;4.10;;;1.48;;
76380;SDS011;65202;52.520;10.528;2023-04-01T10:24:03;5.53;;;2.35;;
76380;SDS011;65202;52.520;10.528;2023-04-01T11:01:02;1.17;;;1.00;;
76380;SDS011;65202;52.520;10.528;2023-04-01T11:04:15;2.40;;;1.38;;
76380;SDS011;65202;52.520;10.528;2023-04-01T11:13:04;3.80;;;1.27;;
76380;SDS011;65202;52.520;10.528;2023-04-01T11:31:26;3.33;;;1.40;;
76380;SDS011;65202;52.520;10.528;2023-04-01T11:34:30;3.40;;;1.70;;
76380;SDS011;65202;52.520;10.528;2023-04-01T11:38:04;2.45;;;1.10;;
76380;SDS011;65202;52.520;10.528;2023-04-01T11:52:56;1.90;;;0.80;;
76380;SDS011;65202;52.520;10.528;2023-04-01T11:55:50;1.45;;;0.77;;
76380;SDS011;65202;52.520;10.528;2023-04-01T12:04:42;3.40;;;0.90;;
76380;SDS011;65202;52.520;10.528;2023-04-01T12:07:29;2.45;;;1.00;;
76380;SDS011;65202;52.520;10.528;2023-04-01T12:13:17;2.75;;;2.10;;
76380;SDS011;65202;52.520;10.528;2023-04-01T12:18:52;4.00;;;2.38;;
76380;SDS011;65202;52.520;10.528;2023-04-01T12:21:37;2.65;;;2.10;;
76380;SDS011;65202;52.520;10.528;2023-04-01T12:41:40;3.10;;;2.78;;
76380;SDS011;65202;52.520;10.528;2023-04-01T12:50:14;8.25;;;4.53;;
76380;SDS011;65202;52.520;10.528;2023-04-01T12:53:44;5.70;;;3.43;;
76380;SDS011;65202;52.520;10.528;2023-04-01T13:00:00;5.50;;;2.90;;
76380;SDS011;65202;52.520;10.528;2023-04-01T13:09:02;2.35;;;1.80;;
76380;SDS011;65202;52.520;10.528;2023-04-01T13:15:13;1.98;;;1.50;;
76380;SDS011;65202;52.520;10.528;2023-04-01T13:21:30;1.20;;;1.10;;
76380;SDS011;65202;52.520;10.528;2023-04-01T13:24:24;1.40;;;1.15;;
76380;SDS011;65202;52.520;10.528;2023-04-01T13:36:05;1.27;;;1.17;;
76380;SDS011;65202;52.520;10.528;2023-04-01T13:39:13;1.02;;;0.93;;
76380;SDS011;65202;52.520;10.528;2023-04-01T13:42:10;0.70;;;0.70;;
76380;SDS011;65202;52.520;10.528;2023-04-01T13:44:41;1.10;;;0.80;;
76380;SDS011;65202;52.520;10.528;2023-04-01T14:02:08;1.00;;;0.88;;
76380;SDS011;65202;52.520;10.528;2023-04-01T14:08:47;0.80;;;0.80;;
76380;SDS011;65202;52.520;10.528;2023-04-01T14:11:56;2.83;;;1.40;;
76380;SDS011;65202;52.520;10.528;2023-04-01T14:14:36;1.30;;;1.20;;
76380;SDS011;65202;52.520;10.528;2023-04-01T14:17:35;1.10;;;1.00;;
76380;SDS011;65202;52.520;10.528;2023-04-01T14:20:29;1.20;;;1.10;;
76380;SDS011;65202;52.520;10.528;2023-04-01T14:33:12;1.42;;;1.30;;
76380;SDS011;65202;52.520;10.528;2023-04-01T14:50:45;2.00;;;1.40;;
76380;SDS011;65202;52.520;10.528;2023-04-01T14:53:28;1.42;;;1.20;;
76380;SDS011;65202;52.520;10.528;2023-04-01T14:56:02;2.30;;;1.80;;
76380;SDS011;65202;52.520;10.528;2023-04-01T14:58:46;4.50;;;3.13;;
76380;SDS011;65202;52.520;10.528;2023-04-01T15:10:12;2.55;;;1.70;;
76380;SDS011;65202;52.520;10.528;2023-04-01T15:16:03;1.80;;;1.60;;
76380;SDS011;65202;52.520;10.528;2023-04-01T15:22:15;3.42;;;1.52;;
76380;SDS011;65202;52.520;10.528;2023-04-01T15:28:20;1.50;;;1.40;;
76380;SDS011;65202;52.520;10.528;2023-04-01T15:31:38;1.55;;;1.45;;
76380;SDS011;65202;52.520;10.528;2023-04-01T15:34:41;1.70;;;1.50;;
76380;SDS011;65202;52.520;10.528;2023-04-01T15:37:59;1.40;;;1.30;;
76380;SDS011;65202;52.520;10.528;2023-04-01T15:40:38;1.40;;;1.10;;
76380;SDS011;65202;52.520;10.528;2023-04-01T15:43:25;1.95;;;1.25;;
76380;SDS011;65202;52.520;10.528;2023-04-01T15:52:02;1.42;;;1.30;;
76380;SDS011;65202;52.520;10.528;2023-04-01T15:57:28;4.90;;;2.25;;
76380;SDS011;65202;52.520;10.528;2023-04-01T16:00:11;2.20;;;1.98;;
76380;SDS011;65202;52.520;10.528;2023-04-01T16:09:20;2.28;;;2.08;;
76380;SDS011;65202;52.520;10.528;2023-04-01T16:15:18;2.65;;;2.40;;
76380;SDS011;65202;52.520;10.528;2023-04-01T16:18:08;2.88;;;2.53;;
76380;SDS011;65202;52.520;10.528;2023-04-01T16:21:12;2.87;;;2.20;;
76380;SDS011;65202;52.520;10.528;2023-04-01T16:23:55;2.67;;;2.30;;
76380;SDS011;65202;52.520;10.528;2023-04-01T16:32:18;3.92;;;2.67;;
76380;SDS011;65202;52.520;10.528;2023-04-01T16:35:21;3.75;;;2.72;;
76380;SDS011;65202;52.520;10.528;2023-04-01T16:38:03;3.10;;;2.45;;
76380;SDS011;65202;52.520;10.528;2023-04-01T16:41:01;6.78;;;4.43;;
76380;SDS011;65202;52.520;10.528;2023-04-01T16:43:41;4.78;;;2.70;;
76380;SDS011;65202;52.520;10.528;2023-04-01T16:54:25;5.60;;;3.63;;
76380;SDS011;65202;52.520;10.528;2023-04-01T16:59:36;5.80;;;2.70;;
76380;SDS011;65202;52.520;10.528;2023-04-01T17:02:26;3.63;;;2.60;;
76380;SDS011;65202;52.520;10.528;2023-04-01T17:05:08;4.05;;;2.92;;
76380;SDS011;65202;52.520;10.528;2023-04-01T17:13:22;2.72;;;2.35;;
76380;SDS011;65202;52.520;10.528;2023-04-01T17:16:45;5.30;;;2.85;;
76380;SDS011;65202;52.520;10.528;2023-04-01T17:22:27;4.25;;;3.33;;
76380;SDS011;65202;52.520;10.528;2023-04-01T17:46:11;3.10;;;2.70;;
76380;SDS011;65202;52.520;10.528;2023-04-01T17:49:26;3.65;;;2.50;;
76380;SDS011;65202;52.520;10.528;2023-04-01T17:52:18;3.50;;;2.60;;
76380;SDS011;65202;52.520;10.528;2023-04-01T18:10:19;5.85;;;4.05;;
76380;SDS011;65202;52.520;10.528;2023-04-01T18:13:26;6.43;;;3.50;;
76380;SDS011;65202;52.520;10.528;2023-04-01T18:25:05;5.32;;;3.78;;
76380;SDS011;65202;52.520;10.528;2023-04-01T18:27:57;6.68;;;3.15;;
76380;SDS011;65202;52.520;10.528;2023-04-01T18:31:07;6.03;;;2.92;;
76380;SDS011;65202;52.520;10.528;2023-04-01T18:33:46;6.40;;;3.20;;
76380;SDS011;65202;52.520;10.528;2023-04-01T18:36:49;4.38;;;3.92;;
76380;SDS011;65202;52.520;10.528;2023-04-01T18:39:40;8.60;;;4.75;;
76380;SDS011;65202;52.520;10.528;2023-04-01T18:42:33;5.10;;;3.30;;
76380;SDS011;65202;52.520;10.528;2023-04-01T18:51:21;6.13;;;3.60;;
76380;SDS011;65202;52.520;10.528;2023-04-01T18:57:09;6.55;;;4.18;;
76380;SDS011;65202;52.520;10.528;2023-04-01T19:00:02;5.75;;;3.28;;
76380;SDS011;65202;52.520;10.528;2023-04-01T19:03:20;4.28;;;3.10;;
76380;SDS011;65202;52.520;10.528;2023-04-01T19:05:59;4.83;;;3.13;;
76380;SDS011;65202;52.520;10.528;2023-04-01T19:08:43;6.70;;;3.47;;
76380;SDS011;65202;52.520;10.528;2023-04-01T19:14:26;5.22;;;3.30;;
76380;SDS011;65202;52.520;10.528;2023-04-01T19:17:26;8.45;;;5.65;;
76380;SDS011;65202;52.520;10.528;2023-04-01T19:23:42;6.03;;;3.53;;
76380;SDS011;65202;52.520;10.528;2023-04-01T19:27:07;7.43;;;3.47;;
76380;SDS011;65202;52.520;10.528;2023-04-01T19:30:12;6.05;;;3.30;;
76380;SDS011;65202;52.520;10.528;2023-04-01T19:45:47;6.90;;;3.95;;
76380;SDS011;65202;52.520;10.528;2023-04-01T19:51:17;6.80;;;4.45;;
76380;SDS011;65202;52.520;10.528;2023-04-01T20:00:51;8.82;;;5.07;;
76380;SDS011;65202;52.520;10.528;2023-04-01T20:03:00;8.13;;;5.00;;
76380;SDS011;65202;52.520;10.528;2023-04-01T20:05:50;7.78;;;4.90;;
76380;SDS011;65202;52.520;10.528;2023-04-01T20:08:49;10.35;;;5.15;;
76380;SDS011;65202;52.520;10.528;2023-04-01T20:39:04;12.15;;;5.32;;
76380;SDS011;65202;52.520;10.528;2023-04-01T20:42:04;15.30;;;5.55;;
76380;SDS011;65202;52.520;10.528;2023-04-01T20:44:58;15.75;;;6.43;;
76380;SDS011;65202;52.520;10.528;2023-04-01T20:50:58;9.45;;;5.28;;
76380;SDS011;65202;52.520;10.528;2023-04-01T20:53:36;13.57;;;5.63;;
76380;SDS011;65202;52.520;10.528;2023-04-01T20:56:52;9.63;;;5.93;;
76380;SDS011;65202;52.520;10.528;2023-04-01T21:03:01;10.63;;;5.40;;
76380;SDS011;65202;52.520;10.528;2023-04-01T21:05:45;8.88;;;5.45;;
76380;SDS011;65202;52.520;10.528;2023-04-01T21:11:56;11.20;;;5.50;;
76380;SDS011;65202;52.520;10.528;2023-04-01T21:18:11;14.15;;;5.40;;
76380;SDS011;65202;52.520;10.528;2023-04-01T21:24:01;13.57;;;5.72;;
76380;SDS011;65202;52.520;10.528;2023-04-01T21:30:02;11.70;;;5.45;;
76380;SDS011;65202;52.520;10.528;2023-04-01T21:51:29;11.55;;;5.13;;
76380;SDS011;65202;52.520;10.528;2023-04-01T22:00:21;17.17;;;5.68;;
76380;SDS011;65202;52.520;10.528;2023-04-01T22:03:17;13.25;;;5.57;;
76380;SDS011;65202;52.520;10.528;2023-04-01T22:08:43;7.88;;;4.78;;
76380;SDS011;65202;52.520;10.528;2023-04-01T22:11:39;15.43;;;5.57;;
76380;SDS011;65202;52.520;10.528;2023-04-01T22:14:25;12.15;;;5.25;;
76380;SDS011;65202;52.520;10.528;2023-04-01T22:17:10;15.05;;;5.63;;
76380;SDS011;65202;52.520;10.528;2023-04-01T22:20:03;11.23;;;4.45;;
76380;SDS011;65202;52.520;10.528;2023-04-01T22:25:49;11.95;;;4.78;;
76380;SDS011;65202;52.520;10.528;2023-04-01T22:28:32;9.10;;;4.97;;
76380;SDS011;65202;52.520;10.528;2023-04-01T22:31:32;12.93;;;6.55;;
76380;SDS011;65202;52.520;10.528;2023-04-01T22:37:05;12.63;;;4.05;;
76380;SDS011;65202;52.520;10.528;2023-04-01T22:40:06;11.30;;;4.30;;
76380;SDS011;65202;52.520;10.528;2023-04-01T22:43:07;11.23;;;4.05;;
76380;SDS011;65202;52.520;10.528;2023-04-01T22:48:31;10.60;;;3.97;;
76380;SDS011;65202;52.520;10.528;2023-04-01T22:54:27;8.00;;;3.80;;
76380;SDS011;65202;52.520;10.528;2023-04-01T22:59:42;10.73;;;3.97;;
76380;SDS011;65202;52.520;10.528;2023-04-01T23:07:38;9.50;;;4.30;;
76380;SDS011;65202;52.520;10.528;2023-04-01T23:10:25;11.77;;;3.97;;
76380;SDS011;65202;52.520;10.528;2023-04-01T23:13:05;10.35;;;3.78;;
76380;SDS011;65202;52.520;10.528;2023-04-01T23:15:44;10.93;;;4.20;;
76380;SDS011;65202;52.520;10.528;2023-04-01T23:21:39;8.43;;;4.07;;
76380;SDS011;65202;52.520;10.528;2023-04-01T23:24:21;7.80;;;3.90;;
76380;SDS011;65202;52.520;10.528;2023-04-01T23:27:08;10.00;;;3.65;;
76380;SDS011;65202;52.520;10.528;2023-04-01T23:29:46;14.05;;;4.10;;
76380;SDS011;65202;52.520;10.528;2023-04-01T23:32:15;12.13;;;3.60;;
76380;SDS011;65202;52.520;10.528;2023-04-01T23:34:49;11.23;;;3.83;;
76380;SDS011;65202;52.520;10.528;2023-04-01T23:37:20;9.60;;;3.50;;
76380;SDS011;65202;52.520;10.528;2023-04-01T23:39:50;12.30;;;4.25;;
76380;SDS011;65202;52.520;10.528;2023-04-01T23:42:26;12.32;;;4.40;;
76380;SDS011;65202;52.520;10.528;2023-04-01T23:45:11;8.55;;;3.50;;
76380;SDS011;65202;52.520;10.528;2023-04-01T23:47:49;8.90;;;3.40;;
76380;SDS011;65202;52.520;10.528;2023-04-01T23:50:27;9.93;;;2.92;;
76380;SDS011;65202;52.520;10.528;2023-04-01T23:53:00;10.00;;;3.80;;
76380;SDS011;65202;52.520;10.528;2023-04-01T23:55:38;7.35;;;3.33;;
